Time;durP1;ratioP1;P1;durP2;ratioP2;P2;SDS_P1;SDS_P2;PMS_P1;PMS_P2;Temp;Humidity;BMP_temperature;BMP_pressure;BME280_temperature;BME280_humidity;BME280_pressure;Samples;Min_cycle;Max_cycle;Signal;HPM_P1;HPM_P2
2024/01/25 00:01:54;;;;;;;12.02;2.58;;;31.00;99.90;;;;;;4964035;28;20195;-74
2024/01/25 00:04:21;;;;;;;13.32;2.75;;;31.00;99.90;;;;;;4963626;28;20658;-75
2024/01/25 00:06:48;;;;;;;14.10;2.55;;;30.90;99.90;;;;;;4962083;28;20639;-75
2024/01/25 00:09:16;;;;;;;11.00;2.33;;;30.90;99.90;;;;;;4965605;28;20671;-74
2024/01/25 00:11:44;;;;;;;9.60;2.63;;;30.80;99.90;;;;;;4973169;28;20685;-74
2024/01/25 00:14:11;;;;;;;13.43;2.42;;;30.80;99.90;;;;;;4962704;28;20192;-74
2024/01/25 00:16:42;;;;;;;8.32;2.40;;;30.80;99.90;;;;;;4963485;28;20180;-75
2024/01/25 00:19:09;;;;;;;8.48;2.47;;;30.80;99.90;;;;;;4966970;28;20183;-74
2024/01/25 00:21:43;;;;;;;4.20;1.85;;;30.70;99.90;;;;;;4971752;28;20187;-73
2024/01/25 00:24:13;;;;;;;3.90;1.77;;;30.70;99.90;;;;;;4954090;28;20263;-73
2024/01/25 00:26:40;;;;;;;7.07;2.58;;;30.80;99.90;;;;;;4953512;29;20183;-75
2024/01/25 00:29:08;;;;;;;7.18;2.42;;;30.80;99.90;;;;;;4957935;28;20184;-78
2024/01/25 00:31:35;;;;;;;8.30;2.00;;;30.80;99.90;;;;;;4952682;29;20219;-77
2024/01/25 00:34:03;;;;;;;9.65;2.47;;;30.80;99.90;;;;;;4958428;28;20266;-76
2024/01/25 00:36:31;;;;;;;8.15;1.83;;;30.90;99.90;;;;;;4973039;28;20223;-76
2024/01/25 00:38:58;;;;;;;10.20;2.50;;;30.80;99.90;;;;;;4967307;28;20176;-74
2024/01/25 00:41:26;;;;;;;7.68;2.72;;;30.80;99.90;;;;;;4962681;28;20191;-74
2024/01/25 00:43:53;;;;;;;7.97;2.50;;;30.80;99.90;;;;;;4958933;28;20191;-74
2024/01/25 00:46:21;;;;;;;7.03;2.30;;;30.70;99.90;;;;;;4952431;28;20176;-77
2024/01/25 00:48:48;;;;;;;8.20;2.50;;;30.70;99.90;;;;;;4974775;28;20187;-74
2024/01/25 00:51:24;;;;;;;7.97;2.63;;;30.60;99.90;;;;;;4954078;28;20223;-74
2024/01/25 00:53:51;;;;;;;7.95;1.90;;;30.60;99.90;;;;;;4954903;28;20175;-73
2024/01/25 00:56:19;;;;;;;5.35;2.20;;;30.50;99.90;;;;;;4972594;28;20187;-73
2024/01/25 00:58:46;;;;;;;8.48;2.88;;;30.60;99.90;;;;;;4973141;28;20175;-73
2024/01/25 01:01:14;;;;;;;11.02;2.50;;;30.60;99.90;;;;;;4973148;28;20187;-74
2024/01/25 01:03:41;;;;;;;8.35;2.60;;;30.60;99.90;;;;;;4961080;28;20227;-74
2024/01/25 01:06:09;;;;;;;9.48;2.53;;;30.60;99.90;;;;;;4954778;28;20654;-74
2024/01/25 01:08:37;;;;;;;5.93;2.20;;;30.70;99.90;;;;;;4956157;28;20591;-73
2024/01/25 01:11:05;;;;;;;14.68;2.80;;;30.60;99.90;;;;;;4957138;28;20211;-73
2024/01/25 01:13:32;;;;;;;10.15;2.50;;;30.60;99.90;;;;;;4976407;28;20226;-76
2024/01/25 01:16:00;;;;;;;6.57;2.50;;;30.70;99.90;;;;;;4957820;28;20196;-73
2024/01/25 01:18:27;;;;;;;9.13;2.75;;;30.70;99.90;;;;;;4967482;28;20242;-73
2024/01/25 01:20:54;;;;;;;6.53;2.30;;;30.80;99.90;;;;;;4937101;28;20278;-74
2024/01/25 01:23:22;;;;;;;10.25;2.72;;;30.90;99.90;;;;;;4956910;28;20208;-74
2024/01/25 01:25:49;;;;;;;12.13;2.72;;;30.90;99.90;;;;;;4972423;28;20191;-74
2024/01/25 01:28:16;;;;;;;14.90;2.97;;;31.00;99.90;;;;;;4975802;28;20175;-74
2024/01/25 01:30:45;;;;;;;9.77;2.47;;;31.10;99.90;;;;;;4976168;28;20211;-74
2024/01/25 01:33:12;;;;;;;7.68;2.65;;;31.10;99.90;;;;;;4975741;28;20515;-74
2024/01/25 01:35:40;;;;;;;13.60;3.45;;;31.30;99.90;;;;;;4963242;28;20258;-73
2024/01/25 01:38:07;;;;;;;9.15;2.70;;;31.30;99.90;;;;;;4963891;28;20241;-75
2024/01/25 01:40:35;;;;;;;8.98;2.85;;;31.40;99.90;;;;;;4959423;28;20706;-73
2024/01/25 01:43:03;;;;;;;11.75;3.17;;;31.40;99.90;;;;;;4956147;28;20540;-73
2024/01/25 01:45:30;;;;;;;8.07;2.53;;;31.50;99.90;;;;;;4963705;28;20208;-72
2024/01/25 01:47:59;;;;;;;4.95;2.28;;;31.60;99.90;;;;;;4988599;28;20202;-74
2024/01/25 01:50:27;;;;;;;11.15;3.20;;;31.90;99.90;;;;;;4963187;28;20207;-76
2024/01/25 01:52:55;;;;;;;9.27;2.63;;;32.10;99.90;;;;;;4966785;28;20188;-74
2024/01/25 01:55:23;;;;;;;10.52;2.30;;;32.20;99.90;;;;;;4968271;28;20211;-76
2024/01/25 01:57:50;;;;;;;8.80;1.95;;;32.40;99.90;;;;;;4965143;28;20188;-77
2024/01/25 02:00:18;;;;;;;6.40;2.17;;;32.60;99.90;;;;;;4966114;28;20916;-77
2024/01/25 02:02:45;;;;;;;13.02;3.00;;;33.00;99.90;;;;;;4975794;28;20230;-78
2024/01/25 02:05:13;;;;;;;12.30;2.50;;;33.20;99.90;;;;;;4975192;28;20190;-78
2024/01/25 02:07:42;;;;;;;14.73;2.78;;;33.10;99.90;;;;;;4975642;28;20697;-77
2024/01/25 02:10:10;;;;;;;9.55;2.60;;;33.40;99.90;;;;;;4974580;28;20241;-77
2024/01/25 02:12:38;;;;;;;10.18;2.00;;;33.40;99.90;;;;;;4956881;28;20376;-78
2024/01/25 02:15:06;;;;;;;6.43;1.92;;;33.60;99.90;;;;;;4956188;28;20677;-77
2024/01/25 02:17:33;;;;;;;11.20;2.47;;;33.70;99.90;;;;;;4956243;28;20184;-76
2024/01/25 02:20:03;;;;;;;5.13;1.77;;;33.70;99.90;;;;;;4954870;28;20854;-77
2024/01/25 02:22:30;;;;;;;8.55;2.33;;;33.90;99.90;;;;;;4954750;29;20180;-78
2024/01/25 02:24:57;;;;;;;8.30;2.58;;;33.90;99.90;;;;;;4964899;28;20194;-77
2024/01/25 02:27:25;;;;;;;12.50;3.17;;;33.80;99.90;;;;;;4966003;28;20180;-74
2024/01/25 02:29:52;;;;;;;15.13;3.45;;;33.70;99.90;;;;;;4965014;28;20187;-75
2024/01/25 02:32:19;;;;;;;16.83;3.80;;;33.90;99.90;;;;;;4969673;28;20215;-77
2024/01/25 02:34:47;;;;;;;10.85;3.22;;;33.70;99.90;;;;;;4963361;28;20175;-75
2024/01/25 02:37:14;;;;;;;9.32;3.03;;;33.50;99.90;;;;;;4960686;28;20684;-76
2024/01/25 02:39:42;;;;;;;12.40;3.60;;;33.50;99.90;;;;;;4955815;28;20252;-74
2024/01/25 02:42:09;;;;;;;17.30;3.75;;;33.40;99.90;;;;;;4955376;28;20206;-76
2024/01/25 02:44:37;;;;;;;11.70;3.95;;;33.50;99.90;;;;;;4955546;28;20286;-76
2024/01/25 02:47:04;;;;;;;8.43;3.30;;;33.60;99.90;;;;;;4955546;28;20180;-76
2024/01/25 02:49:32;;;;;;;13.63;3.28;;;33.70;99.90;;;;;;4955168;28;20671;-76
2024/01/25 02:51:59;;;;;;;12.80;3.28;;;33.80;99.90;;;;;;4960357;28;20216;-77
2024/01/25 02:54:27;;;;;;;13.23;3.65;;;33.90;99.90;;;;;;4955606;28;20176;-77
2024/01/25 02:56:54;;;;;;;12.68;4.38;;;34.00;99.90;;;;;;4954893;28;20180;-76
2024/01/25 02:59:22;;;;;;;9.77;3.50;;;34.20;99.90;;;;;;4955476;28;20175;-75
2024/01/25 03:01:50;;;;;;;16.80;3.78;;;33.90;99.90;;;;;;4955247;28;20184;-76
2024/01/25 03:04:17;;;;;;;12.73;3.55;;;33.40;99.90;;;;;;4954537;29;20638;-76
2024/01/25 03:06:44;;;;;;;19.20;4.18;;;33.20;99.90;;;;;;4956500;28;20203;-76
2024/01/25 03:09:12;;;;;;;14.70;4.38;;;33.00;99.90;;;;;;4956602;28;20187;-76
2024/01/25 03:11:40;;;;;;;21.88;4.30;;;32.60;99.90;;;;;;4956573;28;20282;-76
2024/01/25 03:14:07;;;;;;;11.05;3.55;;;32.40;99.90;;;;;;4956924;28;20180;-76
2024/01/25 03:16:34;;;;;;;17.75;4.68;;;32.20;99.90;;;;;;4956583;28;20188;-74
2024/01/25 03:19:02;;;;;;;25.58;4.70;;;32.10;99.90;;;;;;4956514;28;20176;-75
2024/01/25 03:21:29;;;;;;;13.43;3.63;;;31.80;99.90;;;;;;4956358;28;20749;-75
2024/01/25 03:23:56;;;;;;;16.98;4.00;;;31.70;99.90;;;;;;4956553;28;20246;-75
2024/01/25 03:26:24;;;;;;;19.02;4.18;;;31.70;99.90;;;;;;4954848;29;20180;-77
2024/01/25 03:28:51;;;;;;;25.60;4.32;;;31.50;99.90;;;;;;4956594;28;20596;-76
2024/01/25 03:31:18;;;;;;;12.73;3.53;;;31.30;99.90;;;;;;4956247;28;20266;-76
2024/01/25 03:33:46;;;;;;;20.70;4.35;;;31.00;99.90;;;;;;4956079;28;20172;-76
2024/01/25 03:36:16;;;;;;;16.35;4.28;;;30.80;99.90;;;;;;4956057;28;20262;-76
2024/01/25 03:38:44;;;;;;;12.02;3.95;;;30.70;99.90;;;;;;4956139;28;20259;-75
2024/01/25 03:41:11;;;;;;;15.60;3.75;;;30.70;99.90;;;;;;4956403;28;20183;-75
2024/01/25 03:43:38;;;;;;;15.63;4.82;;;30.80;99.90;;;;;;4966643;28;20198;-75
2024/01/25 03:46:06;;;;;;;14.18;3.65;;;30.70;99.90;;;;;;4964203;28;20238;-75
2024/01/25 03:48:33;;;;;;;15.55;4.03;;;30.70;99.90;;;;;;4958265;28;20187;-76
2024/01/25 03:51:00;;;;;;;14.05;3.90;;;30.60;99.90;;;;;;4954678;28;20219;-76
2024/01/25 03:53:28;;;;;;;19.80;3.78;;;30.50;99.90;;;;;;4958243;28;20203;-76
2024/01/25 03:55:55;;;;;;;16.70;3.83;;;30.50;99.90;;;;;;4965351;28;20564;-74
2024/01/25 03:58:22;;;;;;;10.45;3.28;;;30.30;99.90;;;;;;4962399;28;20179;-74
2024/01/25 04:00:50;;;;;;;17.00;4.10;;;30.30;99.90;;;;;;4948877;28;20191;-75
2024/01/25 04:03:18;;;;;;;14.88;4.05;;;30.20;99.90;;;;;;4956836;28;20251;-75
2024/01/25 04:05:45;;;;;;;15.85;3.40;;;29.90;99.90;;;;;;4962329;28;20195;-74
2024/01/25 04:08:12;;;;;;;19.07;4.63;;;29.80;99.90;;;;;;4966753;28;20215;-77
2024/01/25 04:10:39;;;;;;;15.97;3.70;;;29.90;99.90;;;;;;4972921;28;20299;-75
2024/01/25 04:13:07;;;;;;;13.50;3.07;;;30.00;99.90;;;;;;4970085;28;20218;-74
2024/01/25 04:15:34;;;;;;;20.60;3.97;;;30.00;99.90;;;;;;4961859;28;20274;-74
2024/01/25 04:18:02;;;;;;;15.07;3.55;;;30.10;99.90;;;;;;4972848;28;20237;-75
2024/01/25 04:20:30;;;;;;;17.90;4.50;;;30.10;99.90;;;;;;4970211;28;20186;-75
2024/01/25 04:22:58;;;;;;;20.30;4.28;;;30.30;99.90;;;;;;4961959;28;20642;-77
2024/01/25 04:25:26;;;;;;;16.37;4.23;;;30.20;99.90;;;;;;4962465;28;20187;-74
2024/01/25 04:27:53;;;;;;;19.55;3.47;;;30.20;99.90;;;;;;4961684;28;20188;-76
2024/01/25 04:30:20;;;;;;;15.00;3.70;;;30.10;99.90;;;;;;4957121;28;20184;-77
2024/01/25 04:32:48;;;;;;;20.45;4.13;;;30.20;99.90;;;;;;4953295;28;20191;-77
2024/01/25 04:35:15;;;;;;;11.33;3.63;;;30.00;99.90;;;;;;4951919;29;20710;-74
2024/01/25 04:37:42;;;;;;;19.90;3.97;;;30.00;99.90;;;;;;4969936;28;20605;-74
2024/01/25 04:40:10;;;;;;;13.35;3.22;;;29.80;99.90;;;;;;4968278;28;20304;-74
2024/01/25 04:42:38;;;;;;;15.37;3.63;;;29.80;99.90;;;;;;4962759;28;20188;-74
2024/01/25 04:45:06;;;;;;;14.55;4.20;;;29.70;99.90;;;;;;4963719;28;20790;-73
2024/01/25 04:47:33;;;;;;;15.20;3.55;;;29.60;99.90;;;;;;4958764;28;20203;-73
2024/01/25 04:50:00;;;;;;;14.97;3.60;;;29.50;99.90;;;;;;4963539;28;20233;-74
2024/01/25 04:52:28;;;;;;;13.73;2.93;;;29.50;99.90;;;;;;4964520;28;20237;-71
2024/01/25 04:54:55;;;;;;;19.30;4.03;;;29.30;99.90;;;;;;4961538;28;20175;-73
2024/01/25 04:57:22;;;;;;;15.50;3.20;;;29.20;99.90;;;;;;4964115;28;20236;-76
2024/01/25 04:59:50;;;;;;;14.33;3.30;;;29.10;99.90;;;;;;4959687;28;20188;-76
2024/01/25 05:02:17;;;;;;;15.77;3.23;;;29.10;99.90;;;;;;4961665;28;20184;-74
2024/01/25 05:04:44;;;;;;;10.73;2.83;;;29.00;99.90;;;;;;4963310;28;20184;-76
2024/01/25 05:07:11;;;;;;;16.90;3.67;;;28.90;99.90;;;;;;4958713;28;20192;-77
2024/01/25 05:09:39;;;;;;;14.50;3.33;;;28.70;99.90;;;;;;4952907;29;20273;-74
2024/01/25 05:12:06;;;;;;;14.17;3.60;;;28.60;99.90;;;;;;4953338;28;20216;-76
2024/01/25 05:14:34;;;;;;;17.40;3.77;;;28.60;99.90;;;;;;4956304;28;20210;-77
2024/01/25 05:17:01;;;;;;;16.43;3.67;;;28.60;99.90;;;;;;4972087;28;20171;-74
2024/01/25 05:19:28;;;;;;;13.47;2.57;;;28.60;99.90;;;;;;4972612;28;20533;-77
2024/01/25 05:21:56;;;;;;;15.03;4.10;;;28.50;99.90;;;;;;4966430;28;20229;-74
2024/01/25 05:24:23;;;;;;;14.50;3.10;;;28.50;99.90;;;;;;4970042;28;20179;-75
2024/01/25 05:26:51;;;;;;;16.97;3.87;;;28.40;99.90;;;;;;4966083;28;20262;-75
2024/01/25 05:29:18;;;;;;;14.40;3.13;;;28.40;99.90;;;;;;4960810;28;20507;-73
2024/01/25 05:31:45;;;;;;;11.87;3.23;;;28.40;99.90;;;;;;4971817;28;20234;-73
2024/01/25 05:34:13;;;;;;;16.53;3.87;;;28.40;99.90;;;;;;4971979;28;20215;-74
2024/01/25 05:36:41;;;;;;;16.87;3.33;;;28.40;99.90;;;;;;4968106;28;20290;-75
2024/01/25 05:39:09;;;;;;;12.93;3.33;;;28.30;99.90;;;;;;4933784;28;20192;-77
2024/01/25 05:41:36;;;;;;;15.00;3.03;;;28.20;99.90;;;;;;4960342;28;20192;-75
2024/01/25 05:44:04;;;;;;;11.07;3.40;;;28.20;99.90;;;;;;4960894;28;20183;-74
2024/01/25 05:46:31;;;;;;;13.63;2.87;;;28.20;99.90;;;;;;4971641;28;20607;-73
2024/01/25 05:48:58;;;;;;;9.90;2.90;;;28.00;99.90;;;;;;4958315;28;20176;-74
2024/01/25 05:51:26;;;;;;;17.93;3.47;;;28.10;99.90;;;;;;4965181;28;20223;-77
2024/01/25 05:53:53;;;;;;;11.67;3.27;;;28.10;99.90;;;;;;4971501;28;20638;-75
2024/01/25 05:56:20;;;;;;;10.70;2.93;;;28.20;99.90;;;;;;4963231;28;20188;-76
2024/01/25 05:58:48;;;;;;;12.83;3.00;;;28.30;99.90;;;;;;4957273;28;20184;-73
2024/01/25 06:01:15;;;;;;;11.33;2.80;;;28.40;99.90;;;;;;4974356;28;20286;-75
2024/01/25 06:03:43;;;;;;;14.30;3.40;;;28.50;99.90;;;;;;4974030;28;20240;-75
2024/01/25 06:06:10;;;;;;;16.03;3.13;;;28.70;99.90;;;;;;4955904;29;20188;-74
2024/01/25 06:08:37;;;;;;;12.30;3.53;;;28.80;99.90;;;;;;4955656;28;20180;-76
2024/01/25 06:11:05;;;;;;;12.83;3.03;;;28.90;99.90;;;;;;4956011;28;20629;-73
2024/01/25 06:13:32;;;;;;;18.07;3.80;;;29.00;99.90;;;;;;4954678;29;20514;-76
2024/01/25 06:16:00;;;;;;;12.87;3.57;;;28.90;99.90;;;;;;4955426;28;20176;-74
2024/01/25 06:18:28;;;;;;;13.23;3.70;;;28.90;99.90;;;;;;4955736;29;20179;-73
2024/01/25 06:20:55;;;;;;;17.00;3.87;;;28.80;99.90;;;;;;4966521;28;20191;-74
2024/01/25 06:23:22;;;;;;;15.43;3.27;;;28.70;99.90;;;;;;4958350;28;20191;-74
2024/01/25 06:25:49;;;;;;;18.80;3.77;;;28.60;99.90;;;;;;4956854;28;20270;-75
2024/01/25 06:28:17;;;;;;;13.30;3.43;;;28.60;99.90;;;;;;4965573;28;20183;-75
2024/01/25 06:30:45;;;;;;;18.80;3.60;;;28.60;99.90;;;;;;4962551;28;20250;-75
2024/01/25 06:33:12;;;;;;;13.10;3.23;;;28.60;99.90;;;;;;4973629;28;20194;-74
2024/01/25 06:35:39;;;;;;;20.07;3.73;;;28.50;99.90;;;;;;4962302;28;20279;-73
2024/01/25 06:38:07;;;;;;;17.63;3.80;;;28.50;99.90;;;;;;4955141;28;20215;-73
2024/01/25 06:40:34;;;;;;;14.23;3.40;;;28.50;99.90;;;;;;4955632;28;20603;-75
2024/01/25 06:43:02;;;;;;;16.23;3.13;;;28.40;99.90;;;;;;4954040;28;20253;-77
2024/01/25 06:45:29;;;;;;;15.63;3.47;;;28.30;99.90;;;;;;4955071;28;20200;-75
2024/01/25 06:47:56;;;;;;;14.37;3.73;;;28.20;99.90;;;;;;4955470;28;20184;-75
2024/01/25 06:50:23;;;;;;;18.63;4.10;;;28.10;99.90;;;;;;4955665;28;20187;-76
2024/01/25 06:52:53;;;;;;;14.07;3.60;;;28.00;99.90;;;;;;4974259;28;20195;-77
2024/01/25 06:55:20;;;;;;;12.60;3.27;;;28.00;99.90;;;;;;4964745;28;20203;-78
2024/01/25 06:57:48;;;;;;;19.03;3.93;;;28.00;99.90;;;;;;4954157;29;20198;-76
2024/01/25 07:00:16;;;;;;;13.23;3.47;;;28.00;99.90;;;;;;4953749;29;20547;-74
2024/01/25 07:02:44;;;;;;;13.57;3.40;;;28.00;99.90;;;;;;4973310;28;20180;-74
2024/01/25 07:05:12;;;;;;;18.73;3.37;;;28.00;99.90;;;;;;4974047;28;20190;-74
2024/01/25 07:07:39;;;;;;;13.80;3.60;;;27.90;99.90;;;;;;4974034;28;20175;-75
2024/01/25 07:10:08;;;;;;;13.73;3.30;;;27.90;99.90;;;;;;4973139;28;20207;-75
2024/01/25 07:12:35;;;;;;;14.87;3.93;;;27.80;99.90;;;;;;4969145;28;20280;-74
2024/01/25 07:15:02;;;;;;;16.00;3.97;;;27.80;99.90;;;;;;4954442;28;20188;-76
2024/01/25 07:17:30;;;;;;;15.77;4.07;;;27.70;99.90;;;;;;4954866;28;20196;-75
2024/01/25 07:19:57;;;;;;;12.13;2.87;;;27.70;99.90;;;;;;4970444;28;20645;-75
2024/01/25 07:22:24;;;;;;;22.30;3.60;;;27.70;99.90;;;;;;4971854;28;20230;-75
2024/01/25 07:24:52;;;;;;;18.23;3.93;;;27.60;99.90;;;;;;4973130;28;20680;-72
2024/01/25 07:27:19;;;;;;;18.47;3.50;;;27.60;99.90;;;;;;4974051;28;20207;-73
2024/01/25 07:29:46;;;;;;;18.10;4.00;;;27.60;99.90;;;;;;4973270;28;20191;-73
2024/01/25 07:32:14;;;;;;;11.53;3.33;;;27.60;99.90;;;;;;4973409;28;20302;-74
2024/01/25 07:34:41;;;;;;;14.70;3.10;;;27.60;99.90;;;;;;4973284;28;20608;-75
2024/01/25 07:37:11;;;;;;;16.67;3.87;;;27.60;99.90;;;;;;4973479;28;20241;-73
2024/01/25 07:39:38;;;;;;;19.70;3.53;;;27.50;99.90;;;;;;4972632;28;20653;-75
2024/01/25 07:42:05;;;;;;;15.70;4.17;;;27.60;99.90;;;;;;4954958;28;20184;-73
2024/01/25 07:44:33;;;;;;;22.23;5.10;;;27.60;99.90;;;;;;4953900;29;20267;-73
2024/01/25 07:47:00;;;;;;;17.20;4.10;;;27.60;99.90;;;;;;4954308;28;20180;-73
2024/01/25 07:49:27;;;;;;;18.40;3.70;;;27.60;99.90;;;;;;4954213;29;20191;-73
2024/01/25 07:51:56;;;;;;;15.60;3.53;;;27.60;99.90;;;;;;4968045;28;20230;-73
2024/01/25 07:54:24;;;;;;;12.37;3.70;;;27.60;99.90;;;;;;4968645;28;20187;-75
2024/01/25 07:56:51;;;;;;;18.37;4.20;;;27.50;99.90;;;;;;4973461;28;20195;-73
2024/01/25 07:59:19;;;;;;;20.53;3.90;;;27.50;99.90;;;;;;4973018;28;20638;-73
2024/01/25 08:01:46;;;;;;;17.43;4.37;;;27.50;99.90;;;;;;4972845;28;20215;-74
2024/01/25 08:04:13;;;;;;;13.80;4.03;;;27.40;99.90;;;;;;4962025;28;20227;-73
2024/01/25 08:06:40;;;;;;;19.67;4.47;;;27.40;99.90;;;;;;4969486;28;20191;-74
2024/01/25 08:09:08;;;;;;;17.57;4.40;;;27.40;99.90;;;;;;4972038;28;20218;-74
2024/01/25 08:11:36;;;;;;;17.73;4.00;;;27.40;99.90;;;;;;4972659;28;20310;-75
2024/01/25 08:14:03;;;;;;;20.17;4.10;;;27.30;99.90;;;;;;4972789;28;20268;-74
2024/01/25 08:16:35;;;;;;;18.17;4.30;;;27.30;99.90;;;;;;4965866;28;20191;-73
2024/01/25 08:19:02;;;;;;;13.00;4.07;;;27.30;99.90;;;;;;4962794;28;20259;-74
2024/01/25 08:21:30;;;;;;;18.03;4.67;;;27.30;99.90;;;;;;4979490;28;20199;-75
2024/01/25 08:23:57;;;;;;;16.80;4.33;;;27.30;99.90;;;;;;4953830;28;20580;-75
2024/01/25 08:26:25;;;;;;;19.53;4.50;;;27.30;99.90;;;;;;4953956;28;20191;-75
2024/01/25 08:28:52;;;;;;;17.13;4.87;;;27.30;99.90;;;;;;4953597;28;20179;-75
2024/01/25 08:31:20;;;;;;;25.63;4.97;;;27.30;99.90;;;;;;4964575;28;20359;-76
2024/01/25 08:33:47;;;;;;;23.07;4.83;;;27.20;99.90;;;;;;4953841;28;20207;-76
2024/01/25 08:36:22;;;;;;;16.93;4.50;;;27.20;99.90;;;;;;4952985;28;20235;-76
2024/01/25 08:38:49;;;;;;;25.70;4.83;;;27.30;99.90;;;;;;4960364;28;20174;-76
2024/01/25 08:41:16;;;;;;;22.63;4.83;;;27.30;99.90;;;;;;4972123;28;20221;-75
2024/01/25 08:43:43;;;;;;;27.90;4.87;;;27.20;99.90;;;;;;4972394;28;20175;-74
2024/01/25 08:46:13;;;;;;;14.47;4.03;;;27.20;99.90;;;;;;4972713;28;20179;-74
2024/01/25 08:48:40;;;;;;;17.03;4.17;;;27.00;99.90;;;;;;4960673;28;20192;-76
2024/01/25 08:51:08;;;;;;;19.63;5.20;;;26.90;99.90;;;;;;4972304;28;20269;-75
2024/01/25 08:53:35;;;;;;;20.00;4.60;;;26.80;99.90;;;;;;4967960;28;20222;-72
2024/01/25 08:56:04;;;;;;;21.37;4.33;;;26.80;99.90;;;;;;4960003;28;20565;-73
2024/01/25 08:58:31;;;;;;;21.30;4.97;;;26.70;99.90;;;;;;4954951;28;20192;-74
2024/01/25 09:00:59;;;;;;;23.63;5.67;;;26.70;99.90;;;;;;4955394;28;20646;-72
2024/01/25 09:03:26;;;;;;;22.17;4.87;;;26.70;99.90;;;;;;4973534;28;20299;-73
2024/01/25 09:05:53;;;;;;;24.40;5.80;;;26.70;99.90;;;;;;4974093;28;20182;-75
2024/01/25 09:08:21;;;;;;;16.90;5.20;;;26.70;99.90;;;;;;4974424;28;20699;-75
2024/01/25 09:10:48;;;;;;;18.80;4.40;;;26.70;99.90;;;;;;4973808;28;20210;-74
2024/01/25 09:13:15;;;;;;;15.07;4.70;;;26.80;99.90;;;;;;4968157;28;20183;-73
2024/01/25 09:15:44;;;;;;;25.70;4.90;;;26.70;99.90;;;;;;4967713;28;20269;-74
2024/01/25 09:18:11;;;;;;;20.57;4.40;;;26.70;99.90;;;;;;4961398;28;20548;-76
2024/01/25 09:20:38;;;;;;;13.73;4.33;;;26.60;99.90;;;;;;4973703;28;20179;-75
2024/01/25 09:23:06;;;;;;;22.77;4.43;;;26.60;99.90;;;;;;4972153;28;20656;-76
2024/01/25 09:25:33;;;;;;;17.00;4.23;;;26.60;99.90;;;;;;4973504;28;20189;-76
2024/01/25 09:28:01;;;;;;;24.30;4.27;;;26.60;99.90;;;;;;4973879;28;20183;-74
2024/01/25 09:30:28;;;;;;;14.60;4.80;;;26.60;99.90;;;;;;4976252;28;20237;-74
2024/01/25 09:32:56;;;;;;;13.17;3.70;;;26.60;99.90;;;;;;4977944;28;20190;-74
2024/01/25 09:35:23;;;;;;;17.37;4.93;;;26.60;99.90;;;;;;4977493;28;20365;-75
2024/01/25 09:37:52;;;;;;;14.73;4.00;;;26.50;99.90;;;;;;4974354;28;20184;-76
2024/01/25 09:40:22;;;;;;;14.53;3.90;;;26.60;99.90;;;;;;4959374;28;20184;-73
2024/01/25 09:42:49;;;;;;;16.50;4.93;;;26.50;99.90;;;;;;4961214;28;20198;-76
2024/01/25 09:45:20;;;;;;;19.60;4.50;;;26.50;99.90;;;;;;4977073;28;20186;-74
2024/01/25 09:47:48;;;;;;;16.20;3.80;;;26.50;99.90;;;;;;4977289;28;20230;-72
2024/01/25 09:50:16;;;;;;;15.80;4.67;;;26.50;99.90;;;;;;4972508;28;20208;-76
2024/01/25 09:52:53;;;;;;;19.53;5.63;;;26.50;99.90;;;;;;4958019;28;20220;-73
2024/01/25 09:55:29;;;;;;;16.83;4.73;;;26.50;99.90;;;;;;4969575;28;20270;-75
2024/01/25 09:57:57;;;;;;;13.57;3.90;;;26.50;99.90;;;;;;4976417;28;20195;-75
2024/01/25 10:00:25;;;;;;;14.87;4.63;;;26.40;99.90;;;;;;4977462;28;20176;-75
2024/01/25 10:02:53;;;;;;;16.40;4.50;;;26.40;99.90;;;;;;4977068;28;20191;-74
2024/01/25 10:05:20;;;;;;;14.23;4.87;;;26.40;99.90;;;;;;4977052;28;20603;-75
2024/01/25 10:07:47;;;;;;;15.93;4.30;;;26.40;99.90;;;;;;4977024;28;20187;-75
2024/01/25 10:10:15;;;;;;;19.50;4.97;;;26.40;99.90;;;;;;4975931;28;20230;-75
2024/01/25 10:12:43;;;;;;;16.07;4.57;;;26.40;99.90;;;;;;4976966;28;20246;-75
2024/01/25 10:15:11;;;;;;;18.27;4.97;;;26.30;99.90;;;;;;4977092;28;20176;-76
2024/01/25 10:17:39;;;;;;;19.43;4.20;;;26.30;99.90;;;;;;4977395;28;20637;-74
2024/01/25 10:20:10;;;;;;;14.07;4.47;;;26.30;99.90;;;;;;4977003;28;20187;-75
2024/01/25 10:22:38;;;;;;;18.13;4.37;;;26.30;99.90;;;;;;4977293;28;20642;-77
2024/01/25 10:25:16;;;;;;;22.47;5.40;;;26.20;99.90;;;;;;4976899;28;20191;-75
2024/01/25 10:27:44;;;;;;;15.93;3.73;;;26.20;99.90;;;;;;4978289;28;20230;-75
2024/01/25 10:30:13;;;;;;;18.97;4.70;;;26.20;99.90;;;;;;4977682;28;20266;-74
2024/01/25 10:32:41;;;;;;;16.60;5.03;;;26.20;99.90;;;;;;4976752;28;20696;-75
2024/01/25 10:35:10;;;;;;;19.27;5.20;;;26.20;99.90;;;;;;4976461;28;20227;-76
2024/01/25 10:37:40;;;;;;;16.73;5.23;;;26.20;99.90;;;;;;4976665;28;20506;-74
2024/01/25 10:40:11;;;;;;;22.47;5.73;;;26.10;99.90;;;;;;4975929;28;20183;-77
2024/01/25 10:42:38;;;;;;;21.77;5.40;;;26.00;99.90;;;;;;4976631;28;20613;-77
2024/01/25 10:45:07;;;;;;;14.10;4.03;;;26.10;99.90;;;;;;4976416;28;20180;-76
2024/01/25 10:47:35;;;;;;;23.10;5.47;;;26.00;99.90;;;;;;4976644;28;20637;-73
2024/01/25 10:50:04;;;;;;;24.20;4.83;;;26.00;99.90;;;;;;4976560;28;20195;-75
2024/01/25 10:52:32;;;;;;;20.93;5.73;;;26.00;99.90;;;;;;4976662;28;20626;-75
2024/01/25 10:54:59;;;;;;;17.90;4.97;;;26.00;99.90;;;;;;4976482;28;20223;-74
2024/01/25 10:57:27;;;;;;;18.73;4.80;;;26.00;99.90;;;;;;4976355;28;20194;-76
2024/01/25 10:59:54;;;;;;;22.40;5.80;;;26.00;99.90;;;;;;4976282;28;20590;-77
2024/01/25 11:02:24;;;;;;;22.33;4.20;;;26.00;99.90;;;;;;4976394;28;20658;-77
2024/01/25 11:04:55;;;;;;;17.23;4.90;;;26.00;99.90;;;;;;4975940;28;20175;-77
2024/01/25 11:07:22;;;;;;;15.43;4.53;;;26.00;99.90;;;;;;4976486;28;20187;-75
2024/01/25 11:09:52;;;;;;;17.13;4.53;;;26.00;99.90;;;;;;4976017;28;20183;-74
2024/01/25 11:12:21;;;;;;;19.60;5.07;;;26.00;99.90;;;;;;4976216;28;20214;-74
2024/01/25 11:14:55;;;;;;;18.13;4.97;;;26.00;99.90;;;;;;4976002;28;20175;-76
2024/01/25 11:17:23;;;;;;;19.43;4.50;;;26.00;99.90;;;;;;4975884;28;20655;-76
2024/01/25 11:19:51;;;;;;;9.17;3.47;;;26.00;99.90;;;;;;4961762;28;20180;-72
2024/01/25 11:22:19;;;;;;;15.63;4.13;;;26.00;99.90;;;;;;4956451;28;20192;-74
2024/01/25 11:24:48;;;;;;;17.97;4.43;;;26.00;99.90;;;;;;4956377;28;20188;-74
2024/01/25 11:27:16;;;;;;;15.87;3.67;;;26.00;99.90;;;;;;4963878;28;20230;-75
2024/01/25 11:29:43;;;;;;;26.47;5.03;;;26.00;99.90;;;;;;4964887;28;20199;-72
2024/01/25 11:32:12;;;;;;;18.13;4.53;;;26.00;99.90;;;;;;4965657;28;20574;-76
2024/01/25 11:34:39;;;;;;;17.87;3.97;;;25.90;99.90;;;;;;4967093;28;20183;-75
2024/01/25 11:37:07;;;;;;;16.47;4.07;;;25.90;99.90;;;;;;4964385;28;20196;-77
2024/01/25 11:39:34;;;;;;;16.53;3.90;;;25.80;99.90;;;;;;4964510;28;20188;-74
2024/01/25 11:42:07;;;;;;;20.60;4.70;;;25.70;99.90;;;;;;4964436;28;20203;-75
2024/01/25 11:44:39;;;;;;;24.30;4.77;;;25.60;99.90;;;;;;4964324;28;20195;-77
2024/01/25 11:47:07;;;;;;;13.47;4.17;;;25.60;99.90;;;;;;4964602;28;20202;-74
2024/01/25 11:49:36;;;;;;;14.27;3.40;;;25.50;99.90;;;;;;4964259;28;20646;-74
2024/01/25 11:52:04;;;;;;;21.03;4.13;;;25.40;99.90;;;;;;4968815;28;20219;-75
2024/01/25 11:54:31;;;;;;;16.90;4.10;;;25.40;99.90;;;;;;4974481;28;20664;-72
2024/01/25 11:57:01;;;;;;;19.70;4.07;;;25.40;99.90;;;;;;4974711;28;20179;-72
2024/01/25 11:59:29;;;;;;;16.83;3.83;;;25.30;99.90;;;;;;4970600;28;20268;-73
2024/01/25 12:01:56;;;;;;;15.33;4.00;;;25.20;99.90;;;;;;4958658;28;20531;-76
2024/01/25 12:04:26;;;;;;;12.53;3.97;;;25.10;99.90;;;;;;4974115;28;20195;-73
2024/01/25 12:06:53;;;;;;;15.70;4.40;;;25.10;99.90;;;;;;4972835;28;20187;-73
2024/01/25 12:09:20;;;;;;;13.30;3.57;;;25.10;99.90;;;;;;4955807;28;20188;-73
2024/01/25 12:11:51;;;;;;;15.43;3.53;;;25.10;99.90;;;;;;4963905;28;20691;-74
2024/01/25 12:14:18;;;;;;;16.80;4.07;;;25.20;99.90;;;;;;4974250;28;20553;-74
2024/01/25 12:16:45;;;;;;;12.57;4.27;;;25.10;99.90;;;;;;4974289;28;20191;-76
2024/01/25 12:19:12;;;;;;;17.40;4.63;;;25.20;99.90;;;;;;4974571;28;20265;-76
2024/01/25 12:21:44;;;;;;;17.00;4.63;;;25.20;99.90;;;;;;4965438;28;20187;-75
2024/01/25 12:24:11;;;;;;;14.23;4.03;;;25.10;99.90;;;;;;4974711;28;20199;-76
2024/01/25 12:26:38;;;;;;;19.00;4.40;;;25.10;99.90;;;;;;4974020;28;20191;-72
2024/01/25 12:29:06;;;;;;;18.37;4.13;;;25.10;99.90;;;;;;4974950;28;20186;-75
2024/01/25 12:31:34;;;;;;;13.43;3.87;;;25.00;99.90;;;;;;4973264;28;20227;-73
2024/01/25 12:34:02;;;;;;;18.50;5.27;;;25.00;99.90;;;;;;4974924;28;20194;-73
2024/01/25 12:36:33;;;;;;;16.53;4.13;;;25.00;99.90;;;;;;4973607;28;20234;-75
2024/01/25 12:39:00;;;;;;;19.07;4.70;;;25.00;99.90;;;;;;4973447;28;20190;-72
2024/01/25 12:41:28;;;;;;;23.70;4.33;;;24.90;99.90;;;;;;4968037;28;20215;-74